sensor_id;sensor_type;location;lat;lon;timestamp;pressure;altitude;pressure_sealevel;temperature;humidity
54808;BME280;40708;50.364;7.550;2023-03-15T00:01:47;100241.13;;;1.56;100.00
54808;BME280;40708;50.364;7.550;2023-03-15T00:04:13;100241.16;;;1.58;100.00
54808;BME280;40708;50.364;7.550;2023-03-15T00:06:38;100245.53;;;1.57;100.00
54808;BME280;40708;50.364;7.550;2023-03-15T00:09:04;100249.91;;;1.58;100.00
54808;BME280;40708;50.364;7.550;2023-03-15T00:11:29;100254.41;;;1.62;100.00
54808;BME280;40708;50.364;7.550;2023-03-15T00:13:56;100249.22;;;1.64;100.00
54808;BME280;40708;50.364;7.550;2023-03-15T00:16:22;100255.50;;;1.69;100.00
54808;BME280;40708;50.364;7.550;2023-03-15T00:18:52;100252.03;;;1.70;100.00
54808;BME280;40708;50.364;7.550;2023-03-15T00:21:18;100257.38;;;1.73;100.00
54808;BME280;40708;50.364;7.550;2023-03-15T00:23:43;100252.25;;;1.76;100.00
54808;BME280;40708;50.364;7.550;2023-03-15T00:26:08;100253.22;;;1.79;100.00
54808;BME280;40708;50.364;7.550;2023-03-15T00:28:33;100252.28;;;1.77;100.00
54808;BME280;40708;50.364;7.550;2023-03-15T00:31:04;100258.44;;;1.79;100.00
54808;BME280;40708;50.364;7.550;2023-03-15T00:33:30;100256.63;;;1.77;100.00
54808;BME280;40708;50.364;7.550;2023-03-15T00:36:01;100263.63;;;1.78;100.00
54808;BME280;40708;50.364;7.550;2023-03-15T00:38:27;100262.63;;;1.74;100.00
54808;BME280;40708;50.364;7.550;2023-03-15T00:40:52;100268.03;;;1.79;100.00
54808;BME280;40708;50.364;7.550;2023-03-15T00:43:17;100266.25;;;1.78;100.00
54808;BME280;40708;50.364;7.550;2023-03-15T00:45:43;100279.34;;;1.78;100.00
54808;BME280;40708;50.364;7.550;2023-03-15T00:48:09;100275.03;;;1.80;100.00
54808;BME280;40708;50.364;7.550;2023-03-15T00:50:34;100281.84;;;1.75;100.00
54808;BME280;40708;50.364;7.550;2023-03-15T00:53:00;100273.97;;;1.73;100.00
54808;BME280;40708;50.364;7.550;2023-03-15T00:55:25;100275.59;;;1.70;100.00
54808;BME280;40708;50.364;7.550;2023-03-15T00:57:51;100272.88;;;1.67;100.00
54808;BME280;40708;50.364;7.550;2023-03-15T01:00:19;100287.72;;;1.68;100.00
54808;BME280;40708;50.364;7.550;2023-03-15T01:02:45;100286.88;;;1.69;100.00
54808;BME280;40708;50.364;7.550;2023-03-15T01:05:11;100279.72;;;1.63;100.00
54808;BME280;40708;50.364;7.550;2023-03-15T01:07:37;100298.09;;;1.65;100.00
54808;BME280;40708;50.364;7.550;2023-03-15T01:10:04;100307.84;;;1.70;100.00
54808;BME280;40708;50.364;7.550;2023-03-15T01:12:31;100297.41;;;1.70;100.00
54808;BME280;40708;50.364;7.550;2023-03-15T01:14:57;100295.69;;;1.71;100.00
54808;BME280;40708;50.364;7.550;2023-03-15T01:17:23;100299.22;;;1.73;100.00
54808;BME280;40708;50.364;7.550;2023-03-15T01:19:48;100298.31;;;1.72;100.00
54808;BME280;40708;50.364;7.550;2023-03-15T01:22:15;100288.75;;;1.73;100.00
54808;BME280;40708;50.364;7.550;2023-03-15T01:24:40;100298.47;;;1.77;100.00
54808;BME280;40708;50.364;7.550;2023-03-15T01:27:06;100300.41;;;1.83;100.00
54808;BME280;40708;50.364;7.550;2023-03-15T01:29:31;100306.72;;;1.89;100.00
54808;BME280;40708;50.364;7.550;2023-03-15T01:31:56;100294.56;;;1.91;100.00
54808;BME280;40708;50.364;7.550;2023-03-15T01:34:22;100285.69;;;1.86;100.00
54808;BME280;40708;50.364;7.550;2023-03-15T01:36:50;100295.25;;;1.84;100.00
54808;BME280;40708;50.364;7.550;2023-03-15T01:39:19;100294.13;;;1.77;100.00
54808;BME280;40708;50.364;7.550;2023-03-15T01:41:44;100293.25;;;1.77;100.00
54808;BME280;40708;50.364;7.550;2023-03-15T01:44:13;100297.31;;;1.69;100.00
54808;BME280;40708;50.364;7.550;2023-03-15T01:46:39;100301.72;;;1.70;100.00
54808;BME280;40708;50.364;7.550;2023-03-15T01:51:52;100304.81;;;1.58;100.00
54808;BME280;40708;50.364;7.550;2023-03-15T01:56:54;100317.84;;;1.57;100.00
54808;BME280;40708;50.364;7.550;2023-03-15T01:59:26;100320.25;;;1.51;100.00
54808;BME280;40708;50.364;7.550;2023-03-15T02:01:54;100325.50;;;1.52;100.00
54808;BME280;40708;50.364;7.550;2023-03-15T02:04:33;100332.50;;;1.52;100.00
54808;BME280;40708;50.364;7.550;2023-03-15T02:07:01;100342.00;;;1.50;100.00
54808;BME280;40708;50.364;7.550;2023-03-15T02:09:43;100340.28;;;1.50;100.00
54808;BME280;40708;50.364;7.550;2023-03-15T02:12:09;100335.16;;;1.53;100.00
54808;BME280;40708;50.364;7.550;2023-03-15T02:14:36;100358.66;;;1.52;100.00
54808;BME280;40708;50.364;7.550;2023-03-15T02:17:02;100359.63;;;1.55;100.00
54808;BME280;40708;50.364;7.550;2023-03-15T02:19:40;100358.00;;;1.59;100.00
54808;BME280;40708;50.364;7.550;2023-03-15T02:22:28;100354.56;;;1.60;100.00
54808;BME280;40708;50.364;7.550;2023-03-15T02:27:29;100351.94;;;1.60;100.00
54808;BME280;40708;50.364;7.550;2023-03-15T02:29:56;100344.38;;;1.67;100.00
54808;BME280;40708;50.364;7.550;2023-03-15T02:32:22;100338.38;;;1.71;100.00
54808;BME280;40708;50.364;7.550;2023-03-15T02:34:47;100332.28;;;1.71;100.00
54808;BME280;40708;50.364;7.550;2023-03-15T02:37:13;100331.50;;;1.73;100.00
54808;BME280;40708;50.364;7.550;2023-03-15T02:39:38;100326.53;;;1.81;100.00
54808;BME280;40708;50.364;7.550;2023-03-15T02:42:03;100317.91;;;1.85;100.00
54808;BME280;40708;50.364;7.550;2023-03-15T02:44:34;100316.94;;;1.82;100.00
54808;BME280;40708;50.364;7.550;2023-03-15T02:47:14;100313.66;;;1.87;100.00
54808;BME280;40708;50.364;7.550;2023-03-15T02:49:42;100317.97;;;1.87;100.00
54808;BME280;40708;50.364;7.550;2023-03-15T02:52:09;100325.03;;;1.89;100.00
54808;BME280;40708;50.364;7.550;2023-03-15T02:54:34;100321.66;;;1.93;100.00
54808;BME280;40708;50.364;7.550;2023-03-15T02:57:01;100320.72;;;1.90;100.00
54808;BME280;40708;50.364;7.550;2023-03-15T02:59:26;100327.78;;;1.94;100.00
54808;BME280;40708;50.364;7.550;2023-03-15T03:01:52;100327.22;;;2.02;100.00
54808;BME280;40708;50.364;7.550;2023-03-15T03:04:18;100322.97;;;2.06;100.00
54808;BME280;40708;50.364;7.550;2023-03-15T03:06:43;100316.84;;;2.05;100.00
54808;BME280;40708;50.364;7.550;2023-03-15T03:09:09;100311.81;;;2.11;100.00
54808;BME280;40708;50.364;7.550;2023-03-15T03:11:35;100313.69;;;2.15;100.00
54808;BME280;40708;50.364;7.550;2023-03-15T03:14:00;100318.09;;;2.16;100.00
54808;BME280;40708;50.364;7.550;2023-03-15T03:16:26;100309.47;;;2.20;100.00
54808;BME280;40708;50.364;7.550;2023-03-15T03:18:51;100310.25;;;2.18;100.00
54808;BME280;40708;50.364;7.550;2023-03-15T03:21:16;100317.59;;;2.28;100.00
54808;BME280;40708;50.364;7.550;2023-03-15T03:23:42;100315.00;;;2.29;100.00
54808;BME280;40708;50.364;7.550;2023-03-15T03:26:14;100314.06;;;2.27;100.00
54808;BME280;40708;50.364;7.550;2023-03-15T03:28:41;100321.97;;;2.29;100.00
54808;BME280;40708;50.364;7.550;2023-03-15T03:31:18;100316.94;;;2.35;100.00
54808;BME280;40708;50.364;7.550;2023-03-15T03:33:43;100318.75;;;2.37;100.00
54808;BME280;40708;50.364;7.550;2023-03-15T03:36:09;100316.94;;;2.35;100.00
54808;BME280;40708;50.364;7.550;2023-03-15T03:38:38;100327.53;;;2.39;100.00
54808;BME280;40708;50.364;7.550;2023-03-15T03:41:04;100342.50;;;2.44;100.00
54808;BME280;40708;50.364;7.550;2023-03-15T03:43:29;100351.16;;;2.41;100.00
54808;BME280;40708;50.364;7.550;2023-03-15T03:45:54;100350.22;;;2.39;100.00
54808;BME280;40708;50.364;7.550;2023-03-15T03:48:20;100342.19;;;2.33;100.00
54808;BME280;40708;50.364;7.550;2023-03-15T03:50:45;100347.75;;;2.44;100.00
54808;BME280;40708;50.364;7.550;2023-03-15T03:53:10;100352.09;;;2.43;100.00
54808;BME280;40708;50.364;7.550;2023-03-15T03:55:37;100363.38;;;2.42;100.00
54808;BME280;40708;50.364;7.550;2023-03-15T03:58:02;100360.94;;;2.47;100.00
54808;BME280;40708;50.364;7.550;2023-03-15T04:00:27;100360.72;;;2.40;100.00
54808;BME280;40708;50.364;7.550;2023-03-15T04:02:52;100360.03;;;2.46;100.00
54808;BME280;40708;50.364;7.550;2023-03-15T04:05:18;100355.00;;;2.52;100.00
54808;BME280;40708;50.364;7.550;2023-03-15T04:07:43;100367.19;;;2.52;100.00
54808;BME280;40708;50.364;7.550;2023-03-15T04:10:09;100367.94;;;2.48;100.00
54808;BME280;40708;50.364;7.550;2023-03-15T04:12:40;100372.19;;;2.44;100.00
54808;BME280;40708;50.364;7.550;2023-03-15T04:15:06;100380.28;;;2.52;100.00
54808;BME280;40708;50.364;7.550;2023-03-15T04:17:31;100367.41;;;2.58;100.00
54808;BME280;40708;50.364;7.550;2023-03-15T04:19:56;100372.38;;;2.50;100.00
54808;BME280;40708;50.364;7.550;2023-03-15T04:22:23;100377.81;;;2.56;100.00
54808;BME280;40708;50.364;7.550;2023-03-15T04:24:48;100384.59;;;2.50;100.00
54808;BME280;40708;50.364;7.550;2023-03-15T04:27:15;100381.97;;;2.50;100.00
54808;BME280;40708;50.364;7.550;2023-03-15T04:29:41;100387.50;;;2.32;100.00
54808;BME280;40708;50.364;7.550;2023-03-15T04:32:07;100397.59;;;2.20;100.00
54808;BME280;40708;50.364;7.550;2023-03-15T04:34:33;100401.31;;;2.01;100.00
54808;BME280;40708;50.364;7.550;2023-03-15T04:37:03;100412.16;;;1.87;100.00
54808;BME280;40708;50.364;7.550;2023-03-15T04:39:28;100417.50;;;1.66;100.00
54808;BME280;40708;50.364;7.550;2023-03-15T04:41:54;100436.47;;;1.60;100.00
54808;BME280;40708;50.364;7.550;2023-03-15T04:44:19;100438.84;;;1.53;100.00
54808;BME280;40708;50.364;7.550;2023-03-15T04:46:45;100444.69;;;1.46;100.00
54808;BME280;40708;50.364;7.550;2023-03-15T04:49:10;100439.19;;;1.38;100.00
54808;BME280;40708;50.364;7.550;2023-03-15T04:51:35;100452.91;;;1.33;100.00
54808;BME280;40708;50.364;7.550;2023-03-15T04:54:01;100449.44;;;1.34;100.00
54808;BME280;40708;50.364;7.550;2023-03-15T04:56:27;100464.97;;;1.29;100.00
54808;BME280;40708;50.364;7.550;2023-03-15T04:58:53;100487.47;;;1.26;100.00
54808;BME280;40708;50.364;7.550;2023-03-15T05:01:18;100494.53;;;1.28;100.00
54808;BME280;40708;50.364;7.550;2023-03-15T05:03:43;100501.72;;;1.34;100.00
54808;BME280;40708;50.364;7.550;2023-03-15T05:06:09;100510.31;;;1.30;100.00
54808;BME280;40708;50.364;7.550;2023-03-15T05:08:34;100508.63;;;1.32;100.00
54808;BME280;40708;50.364;7.550;2023-03-15T05:11:01;100514.78;;;1.34;100.00
54808;BME280;40708;50.364;7.550;2023-03-15T05:13:27;100516.59;;;1.35;100.00
54808;BME280;40708;50.364;7.550;2023-03-15T05:15:52;100514.91;;;1.37;100.00
54808;BME280;40708;50.364;7.550;2023-03-15T05:18:17;100514.03;;;1.36;100.00
54808;BME280;40708;50.364;7.550;2023-03-15T05:20:43;100518.44;;;1.37;100.00
54808;BME280;40708;50.364;7.550;2023-03-15T05:23:08;100517.78;;;1.43;100.00
54808;BME280;40708;50.364;7.550;2023-03-15T05:25:33;100525.50;;;1.40;100.00
54808;BME280;40708;50.364;7.550;2023-03-15T05:28:00;100524.66;;;1.41;100.00
54808;BME280;40708;50.364;7.550;2023-03-15T05:30:28;100527.44;;;1.45;100.00
54808;BME280;40708;50.364;7.550;2023-03-15T05:32:53;100530.84;;;1.43;100.00
54808;BME280;40708;50.364;7.550;2023-03-15T05:35:19;100527.56;;;1.48;100.00
54808;BME280;40708;50.364;7.550;2023-03-15T05:37:44;100533.44;;;1.43;100.00
54808;BME280;40708;50.364;7.550;2023-03-15T05:40:10;100531.44;;;1.36;100.00
54808;BME280;40708;50.364;7.550;2023-03-15T05:42:35;100534.88;;;1.35;100.00
54808;BME280;40708;50.364;7.550;2023-03-15T05:45:01;100532.31;;;1.36;100.00
54808;BME280;40708;50.364;7.550;2023-03-15T05:47:27;100542.06;;;1.40;100.00
54808;BME280;40708;50.364;7.550;2023-03-15T05:49:52;100538.72;;;1.44;100.00
54808;BME280;40708;50.364;7.550;2023-03-15T05:52:18;100550.03;;;1.43;100.00
54808;BME280;40708;50.364;7.550;2023-03-15T05:54:43;100558.81;;;1.45;100.00
54808;BME280;40708;50.364;7.550;2023-03-15T05:57:09;100555.56;;;1.51;100.00
54808;BME280;40708;50.364;7.550;2023-03-15T05:59:34;100559.31;;;1.57;100.00
54808;BME280;40708;50.364;7.550;2023-03-15T06:02:00;100556.78;;;1.60;100.00
54808;BME280;40708;50.364;7.550;2023-03-15T06:04:25;100562.25;;;1.66;100.00
54808;BME280;40708;50.364;7.550;2023-03-15T06:06:51;100559.50;;;1.63;100.00
54808;BME280;40708;50.364;7.550;2023-03-15T06:09:16;100561.53;;;1.70;100.00
54808;BME280;40708;50.364;7.550;2023-03-15T06:11:42;100568.59;;;1.73;100.00
54808;BME280;40708;50.364;7.550;2023-03-15T06:14:07;100565.25;;;1.77;100.00
54808;BME280;40708;50.364;7.550;2023-03-15T06:16:32;100562.88;;;1.83;100.00
54808;BME280;40708;50.364;7.550;2023-03-15T06:18:58;100566.72;;;1.93;100.00
54808;BME280;40708;50.364;7.550;2023-03-15T06:21:23;100574.78;;;1.99;100.00
54808;BME280;40708;50.364;7.550;2023-03-15T06:23:48;100574.50;;;1.91;100.00
54808;BME280;40708;50.364;7.550;2023-03-15T06:26:14;100576.41;;;1.95;100.00
54808;BME280;40708;50.364;7.550;2023-03-15T06:28:40;100564.63;;;2.06;100.00
54808;BME280;40708;50.364;7.550;2023-03-15T06:31:07;100562.81;;;2.05;100.00
54808;BME280;40708;50.364;7.550;2023-03-15T06:33:33;100562.88;;;2.07;100.00
54808;BME280;40708;50.364;7.550;2023-03-15T06:35:58;100568.44;;;2.16;100.00
54808;BME280;40708;50.364;7.550;2023-03-15T06:38:23;100576.19;;;2.13;100.00
54808;BME280;40708;50.364;7.550;2023-03-15T06:40:48;100572.34;;;2.03;100.00
54808;BME280;40708;50.364;7.550;2023-03-15T06:43:14;100577.78;;;2.09;100.00
54808;BME280;40708;50.364;7.550;2023-03-15T06:45:44;100573.31;;;2.07;100.00
54808;BME280;40708;50.364;7.550;2023-03-15T06:48:10;100594.47;;;2.11;100.00
54808;BME280;40708;50.364;7.550;2023-03-15T06:50:35;100589.94;;;2.07;100.00
54808;BME280;40708;50.364;7.550;2023-03-15T06:53:00;100590.97;;;2.12;100.00
54808;BME280;40708;50.364;7.550;2023-03-15T06:55:26;100597.31;;;2.17;100.00
54808;BME280;40708;50.364;7.550;2023-03-15T06:57:52;100598.50;;;2.27;100.00
54808;BME280;40708;50.364;7.550;2023-03-15T07:00:17;100608.47;;;2.37;100.00
54808;BME280;40708;50.364;7.550;2023-03-15T07:02:43;100606.19;;;2.46;100.00
54808;BME280;40708;50.364;7.550;2023-03-15T07:05:08;100603.00;;;2.55;100.00
54808;BME280;40708;50.364;7.550;2023-03-15T07:07:35;100607.53;;;2.35;100.00
54808;BME280;40708;50.364;7.550;2023-03-15T07:10:00;100607.28;;;2.29;100.00
54808;BME280;40708;50.364;7.550;2023-03-15T07:12:26;100609.31;;;2.36;100.00
54808;BME280;40708;50.364;7.550;2023-03-15T07:14:51;100620.88;;;2.42;100.00
54808;BME280;40708;50.364;7.550;2023-03-15T07:17:16;100623.69;;;2.47;100.00
54808;BME280;40708;50.364;7.550;2023-03-15T07:19:42;100628.63;;;2.63;100.00
54808;BME280;40708;50.364;7.550;2023-03-15T07:22:07;100624.97;;;2.58;100.00
54808;BME280;40708;50.364;7.550;2023-03-15T07:24:32;100632.44;;;2.73;100.00
54808;BME280;40708;50.364;7.550;2023-03-15T07:26:58;100635.19;;;2.77;100.00
54808;BME280;40708;50.364;7.550;2023-03-15T07:29:24;100629.66;;;2.93;100.00
54808;BME280;40708;50.364;7.550;2023-03-15T07:31:50;100637.00;;;3.04;100.00
54808;BME280;40708;50.364;7.550;2023-03-15T07:34:15;100632.22;;;2.92;100.00
54808;BME280;40708;50.364;7.550;2023-03-15T07:36:41;100628.94;;;2.99;100.00
54808;BME280;40708;50.364;7.550;2023-03-15T07:39:06;100634.19;;;2.99;100.00
54808;BME280;40708;50.364;7.550;2023-03-15T07:41:32;100637.13;;;3.08;100.00
54808;BME280;40708;50.364;7.550;2023-03-15T07:43:57;100638.81;;;3.06;100.00
54808;BME280;40708;50.364;7.550;2023-03-15T07:46:22;100638.47;;;2.95;100.00
54808;BME280;40708;50.364;7.550;2023-03-15T07:48:47;100641.44;;;3.06;100.00
54808;BME280;40708;50.364;7.550;2023-03-15T07:51:13;100650.03;;;3.02;100.00
54808;BME280;40708;50.364;7.550;2023-03-15T07:53:38;100652.81;;;3.07;100.00
54808;BME280;40708;50.364;7.550;2023-03-15T07:56:04;100661.72;;;3.12;100.00
54808;BME280;40708;50.364;7.550;2023-03-15T07:58:29;100664.72;;;3.22;100.00
54808;BME280;40708;50.364;7.550;2023-03-15T08:00:55;100668.22;;;3.23;100.00
54808;BME280;40708;50.364;7.550;2023-03-15T08:03:22;100665.88;;;3.32;100.00
54808;BME280;40708;50.364;7.550;2023-03-15T08:05:48;100665.38;;;3.42;100.00
54808;BME280;40708;50.364;7.550;2023-03-15T08:08:14;100667.19;;;3.44;100.00
54808;BME280;40708;50.364;7.550;2023-03-15T08:10:39;100665.25;;;3.39;100.00
54808;BME280;40708;50.364;7.550;2023-03-15T08:13:04;100671.53;;;3.44;100.00
54808;BME280;40708;50.364;7.550;2023-03-15T08:15:30;100681.88;;;3.39;100.00
54808;BME280;40708;50.364;7.550;2023-03-15T08:17:55;100685.25;;;3.35;100.00
54808;BME280;40708;50.364;7.550;2023-03-15T08:20:20;100687.16;;;3.41;100.00
54808;BME280;40708;50.364;7.550;2023-03-15T08:22:47;100688.16;;;3.44;100.00
54808;BME280;40708;50.364;7.550;2023-03-15T08:25:14;100694.50;;;3.51;100.00
54808;BME280;40708;50.364;7.550;2023-03-15T08:27:40;100697.56;;;3.65;100.00
54808;BME280;40708;50.364;7.550;2023-03-15T08:30:10;100696.25;;;3.50;100.00
54808;BME280;40708;50.364;7.550;2023-03-15T08:32:37;100704.19;;;3.53;100.00
54808;BME280;40708;50.364;7.550;2023-03-15T08:35:03;100697.81;;;3.45;100.00
54808;BME280;40708;50.364;7.550;2023-03-15T08:37:29;100710.28;;;3.52;100.00
54808;BME280;40708;50.364;7.550;2023-03-15T08:39:54;100714.44;;;3.46;100.00
54808;BME280;40708;50.364;7.550;2023-03-15T08:42:22;100714.06;;;3.60;100.00
54808;BME280;40708;50.364;7.550;2023-03-15T08:44:47;100714.66;;;3.52;100.00
54808;BME280;40708;50.364;7.550;2023-03-15T08:47:13;100730.88;;;3.67;100.00
54808;BME280;40708;50.364;7.550;2023-03-15T08:49:38;100739.25;;;3.82;100.00
54808;BME280;40708;50.364;7.550;2023-03-15T08:52:03;100736.06;;;3.92;100.00
54808;BME280;40708;50.364;7.550;2023-03-15T08:54:29;100736.84;;;3.88;100.00
54808;BME280;40708;50.364;7.550;2023-03-15T08:56:55;100745.22;;;3.78;100.00
54808;BME280;40708;50.364;7.550;2023-03-15T08:59:20;100749.34;;;3.70;100.00
54808;BME280;40708;50.364;7.550;2023-03-15T09:01:46;100746.56;;;3.66;100.00
54808;BME280;40708;50.364;7.550;2023-03-15T09:04:11;100759.72;;;3.67;100.00
54808;BME280;40708;50.364;7.550;2023-03-15T09:06:36;100755.94;;;3.57;100.00
54808;BME280;40708;50.364;7.550;2023-03-15T09:09:02;100766.53;;;3.60;100.00
54808;BME280;40708;50.364;7.550;2023-03-15T09:11:29;100760.19;;;3.81;100.00
54808;BME280;40708;50.364;7.550;2023-03-15T09:13:54;100769.06;;;3.84;100.00
54808;BME280;40708;50.364;7.550;2023-03-15T09:16:19;100783.31;;;3.92;100.00
54808;BME280;40708;50.364;7.550;2023-03-15T09:18:45;100792.28;;;3.99;100.00
54808;BME280;40708;50.364;7.550;2023-03-15T09:21:10;100781.56;;;3.91;100.00
54808;BME280;40708;50.364;7.550;2023-03-15T09:23:36;100781.69;;;3.96;100.00
54808;BME280;40708;50.364;7.550;2023-03-15T09:26:01;100795.84;;;4.01;100.00
54808;BME280;40708;50.364;7.550;2023-03-15T09:28:27;100794.56;;;3.88;100.00
54808;BME280;40708;50.364;7.550;2023-03-15T09:30:52;100792.63;;;3.83;100.00
54808;BME280;40708;50.364;7.550;2023-03-15T09:33:18;100803.06;;;3.81;100.00
54808;BME280;40708;50.364;7.550;2023-03-15T09:35:43;100801.59;;;3.89;100.00
54808;BME280;40708;50.364;7.550;2023-03-15T09:38:08;100812.78;;;3.84;100.00
54808;BME280;40708;50.364;7.550;2023-03-15T09:40:39;100808.53;;;3.62;100.00
54808;BME280;40708;50.364;7.550;2023-03-15T09:48:24;100822.06;;;3.99;100.00
54808;BME280;40708;50.364;7.550;2023-03-15T09:53:30;100824.28;;;4.14;100.00
54808;BME280;40708;50.364;7.550;2023-03-15T09:55:58;100821.38;;;4.33;100.00
54808;BME280;40708;50.364;7.550;2023-03-15T09:58:25;100822.28;;;4.34;100.00
54808;BME280;40708;50.364;7.550;2023-03-15T10:00:59;100827.41;;;4.57;100.00
54808;BME280;40708;50.364;7.550;2023-03-15T10:06:06;100818.63;;;6.52;100.00
54808;BME280;40708;50.364;7.550;2023-03-15T10:08:35;100811.25;;;7.19;100.00
54808;BME280;40708;50.364;7.550;2023-03-15T10:11:22;100795.84;;;7.42;100.00
54808;BME280;40708;50.364;7.550;2023-03-15T10:14:25;100757.72;;;7.27;100.00
54808;BME280;40708;50.364;7.550;2023-03-15T10:16:53;100748.75;;;6.72;100.00
54808;BME280;40708;50.364;7.550;2023-03-15T10:19:39;100740.75;;;6.69;100.00
54808;BME280;40708;50.364;7.550;2023-03-15T10:24:56;100735.31;;;7.03;100.00
54808;BME280;40708;50.364;7.550;2023-03-15T10:30:26;100750.84;;;6.48;100.00
54808;BME280;40708;50.364;7.550;2023-03-15T10:32:59;100750.13;;;6.55;100.00
54808;BME280;40708;50.364;7.550;2023-03-15T10:35:26;100741.13;;;6.45;100.00
54808;BME280;40708;50.364;7.550;2023-03-15T10:37:52;100748.97;;;5.68;100.00
54808;BME280;40708;50.364;7.550;2023-03-15T10:40:40;100753.59;;;5.78;100.00
54808;BME280;40708;50.364;7.550;2023-03-15T10:43:33;100771.84;;;5.70;100.00
54808;BME280;40708;50.364;7.550;2023-03-15T10:46:13;100770.91;;;5.35;100.00
54808;BME280;40708;50.364;7.550;2023-03-15T10:48:58;100772.84;;;5.10;100.00
54808;BME280;40708;50.364;7.550;2023-03-15T10:51:32;100794.31;;;4.94;100.00
54808;BME280;40708;50.364;7.550;2023-03-15T10:54:06;100796.47;;;5.08;100.00
54808;BME280;40708;50.364;7.550;2023-03-15T10:56:43;100800.88;;;5.40;100.00
54808;BME280;40708;50.364;7.550;2023-03-15T10:59:21;100801.28;;;5.56;100.00
54808;BME280;40708;50.364;7.550;2023-03-15T11:01:51;100807.69;;;5.99;100.00
54808;BME280;40708;50.364;7.550;2023-03-15T11:04:22;100798.06;;;6.00;100.00
54808;BME280;40708;50.364;7.550;2023-03-15T11:09:22;100771.25;;;6.18;100.00
54808;BME280;40708;50.364;7.550;2023-03-15T11:12:04;100767.28;;;6.77;100.00
54808;BME280;40708;50.364;7.550;2023-03-15T11:17:02;100746.09;;;7.63;100.00
54808;BME280;40708;50.364;7.550;2023-03-15T11:19:30;100736.75;;;7.85;100.00
54808;BME280;40708;50.364;7.550;2023-03-15T11:21:58;100731.66;;;7.43;100.00
54808;BME280;40708;50.364;7.550;2023-03-15T11:24:28;100731.47;;;7.34;100.00
54808;BME280;40708;50.364;7.550;2023-03-15T11:26:55;100737.28;;;7.15;100.00
54808;BME280;40708;50.364;7.550;2023-03-15T11:29:26;100737.09;;;7.52;100.00
54808;BME280;40708;50.364;7.550;2023-03-15T11:31:53;100746.31;;;7.78;100.00
54808;BME280;40708;50.364;7.550;2023-03-15T11:34:38;100746.56;;;7.94;100.00
54808;BME280;40708;50.364;7.550;2023-03-15T11:37:18;100745.69;;;7.42;100.00
54808;BME280;40708;50.364;7.550;2023-03-15T11:39:51;100755.13;;;6.83;100.00
54808;BME280;40708;50.364;7.550;2023-03-15T11:42:23;100760.03;;;6.67;100.00
54808;BME280;40708;50.364;7.550;2023-03-15T11:44:54;100759.38;;;6.36;100.00
54808;BME280;40708;50.364;7.550;2023-03-15T11:47:42;100760.63;;;6.15;100.00
54808;BME280;40708;50.364;7.550;2023-03-15T11:50:13;100775.31;;;6.04;100.00
54808;BME280;40708;50.364;7.550;2023-03-15T11:52:39;100773.16;;;5.87;100.00
54808;BME280;40708;50.364;7.550;2023-03-15T11:55:18;100781.28;;;5.62;100.00
54808;BME280;40708;50.364;7.550;2023-03-15T11:57:46;100794.72;;;5.40;100.00
54808;BME280;40708;50.364;7.550;2023-03-15T12:03:27;100799.84;;;5.68;100.00
54808;BME280;40708;50.364;7.550;2023-03-15T12:06:09;100805.16;;;6.04;100.00
54808;BME280;40708;50.364;7.550;2023-03-15T12:11:36;100809.59;;;6.81;100.00
54808;BME280;40708;50.364;7.550;2023-03-15T12:14:04;100793.56;;;7.15;100.00
54808;BME280;40708;50.364;7.550;2023-03-15T12:16:47;100787.66;;;7.29;100.00
54808;BME280;40708;50.364;7.550;2023-03-15T12:19:15;100783.19;;;7.72;100.00
54808;BME280;40708;50.364;7.550;2023-03-15T12:21:56;100780.72;;;8.35;100.00
54808;BME280;40708;50.364;7.550;2023-03-15T12:24:27;100769.97;;;8.26;100.00
54808;BME280;40708;50.364;7.550;2023-03-15T12:27:01;100762.31;;;8.42;100.00
54808;BME280;40708;50.364;7.550;2023-03-15T12:29:28;100761.78;;;8.70;100.00
54808;BME280;40708;50.364;7.550;2023-03-15T12:32:03;100767.22;;;8.79;100.00
54808;BME280;40708;50.364;7.550;2023-03-15T12:34:53;100769.03;;;7.67;100.00
54808;BME280;40708;50.364;7.550;2023-03-15T12:37:41;100769.69;;;7.54;100.00
54808;BME280;40708;50.364;7.550;2023-03-15T12:45:33;100812.13;;;6.01;100.00
54808;BME280;40708;50.364;7.550;2023-03-15T12:53:18;100842.56;;;5.58;100.00
54808;BME280;40708;50.364;7.550;2023-03-15T12:55:47;100849.03;;;5.69;100.00
54808;BME280;40708;50.364;7.550;2023-03-15T12:58:15;100849.28;;;6.13;100.00
54808;BME280;40708;50.364;7.550;2023-03-15T13:00:41;100847.63;;;6.53;100.00
54808;BME280;40708;50.364;7.550;2023-03-15T13:03:15;100832.81;;;6.99;100.00
54808;BME280;40708;50.364;7.550;2023-03-15T13:05:54;100816.25;;;7.51;100.00
54808;BME280;40708;50.364;7.550;2023-03-15T13:08:25;100793.31;;;7.99;100.00
54808;BME280;40708;50.364;7.550;2023-03-15T13:14:06;100769.91;;;8.83;100.00
54808;BME280;40708;50.364;7.550;2023-03-15T13:16:44;100756.69;;;8.83;100.00
54808;BME280;40708;50.364;7.550;2023-03-15T13:24:40;100748.63;;;8.73;100.00
54808;BME280;40708;50.364;7.550;2023-03-15T13:27:20;100750.22;;;8.60;100.00
54808;BME280;40708;50.364;7.550;2023-03-15T13:29:51;100750.03;;;9.17;100.00
54808;BME280;40708;50.364;7.550;2023-03-15T13:32:18;100738.59;;;9.20;100.00
54808;BME280;40708;50.364;7.550;2023-03-15T13:34:46;100738.69;;;9.29;100.00
54808;BME280;40708;50.364;7.550;2023-03-15T13:37:20;100744.81;;;9.25;100.00
54808;BME280;40708;50.364;7.550;2023-03-15T13:39:59;100744.69;;;9.14;100.00
54808;BME280;40708;50.364;7.550;2023-03-15T13:42:25;100739.81;;;8.75;100.00
54808;BME280;40708;50.364;7.550;2023-03-15T13:45:11;100738.59;;;8.48;100.00
54808;BME280;40708;50.364;7.550;2023-03-15T13:47:39;100741.47;;;8.04;100.00
54808;BME280;40708;50.364;7.550;2023-03-15T13:50:07;100745.59;;;7.87;100.00